sensor_id;sensor_type;location;lat;lon;timestamp;P1;durP1;ratioP1;P2;durP2;ratioP2
22843;SDS011;11588;51.178;4.852;2023-04-06T00:02:08;34.70;;;18.35;;
22843;SDS011;11588;51.178;4.852;2023-04-06T00:04:34;33.03;;;18.65;;
22843;SDS011;11588;51.178;4.852;2023-04-06T00:07:01;33.97;;;18.77;;
22843;SDS011;11588;51.178;4.852;2023-04-06T00:09:26;30.58;;;18.15;;
22843;SDS011;11588;51.178;4.852;2023-04-06T00:11:51;32.63;;;17.27;;
22843;SDS011;11588;51.178;4.852;2023-04-06T00:14:17;30.17;;;17.45;;
22843;SDS011;11588;51.178;4.852;2023-04-06T00:16:43;29.58;;;17.70;;
22843;SDS011;11588;51.178;4.852;2023-04-06T00:19:08;26.15;;;16.55;;
22843;SDS011;11588;51.178;4.852;2023-04-06T00:21:33;29.60;;;17.00;;
22843;SDS011;11588;51.178;4.852;2023-04-06T00:23:59;30.75;;;17.05;;
22843;SDS011;11588;51.178;4.852;2023-04-06T00:26:24;27.35;;;16.33;;
22843;SDS011;11588;51.178;4.852;2023-04-06T00:28:51;30.55;;;17.00;;
22843;SDS011;11588;51.178;4.852;2023-04-06T00:31:18;26.52;;;16.10;;
22843;SDS011;11588;51.178;4.852;2023-04-06T00:33:45;29.70;;;16.40;;
22843;SDS011;11588;51.178;4.852;2023-04-06T00:36:10;26.33;;;15.50;;
22843;SDS011;11588;51.178;4.852;2023-04-06T00:38:35;26.23;;;15.75;;
22843;SDS011;11588;51.178;4.852;2023-04-06T00:41:01;31.67;;;17.42;;
22843;SDS011;11588;51.178;4.852;2023-04-06T00:43:27;27.33;;;16.58;;
22843;SDS011;11588;51.178;4.852;2023-04-06T00:45:53;30.20;;;16.92;;
22843;SDS011;11588;51.178;4.852;2023-04-06T00:48:19;31.67;;;17.38;;
22843;SDS011;11588;51.178;4.852;2023-04-06T00:50:44;29.85;;;16.85;;
22843;SDS011;11588;51.178;4.852;2023-04-06T00:53:09;27.60;;;16.30;;
22843;SDS011;11588;51.178;4.852;2023-04-06T00:55:36;27.65;;;15.57;;
22843;SDS011;11588;51.178;4.852;2023-04-06T00:58:02;25.73;;;15.43;;
22843;SDS011;11588;51.178;4.852;2023-04-06T01:00:27;25.35;;;15.32;;
22843;SDS011;11588;51.178;4.852;2023-04-06T01:02:53;28.23;;;16.42;;
22843;SDS011;11588;51.178;4.852;2023-04-06T01:05:18;27.08;;;14.93;;
22843;SDS011;11588;51.178;4.852;2023-04-06T01:07:44;26.75;;;15.73;;
22843;SDS011;11588;51.178;4.852;2023-04-06T01:10:09;27.08;;;16.02;;
22843;SDS011;11588;51.178;4.852;2023-04-06T01:12:35;27.35;;;15.43;;
22843;SDS011;11588;51.178;4.852;2023-04-06T01:15:02;27.05;;;15.82;;
22843;SDS011;11588;51.178;4.852;2023-04-06T01:17:28;26.40;;;16.20;;
22843;SDS011;11588;51.178;4.852;2023-04-06T01:19:55;27.27;;;16.15;;
22843;SDS011;11588;51.178;4.852;2023-04-06T01:22:21;26.13;;;16.35;;
22843;SDS011;11588;51.178;4.852;2023-04-06T01:24:47;25.92;;;15.43;;
22843;SDS011;11588;51.178;4.852;2023-04-06T01:27:12;27.95;;;15.98;;
22843;SDS011;11588;51.178;4.852;2023-04-06T01:29:38;27.88;;;15.93;;
22843;SDS011;11588;51.178;4.852;2023-04-06T01:32:07;26.25;;;15.02;;
22843;SDS011;11588;51.178;4.852;2023-04-06T01:34:32;26.42;;;15.82;;
22843;SDS011;11588;51.178;4.852;2023-04-06T01:36:57;27.15;;;15.55;;
22843;SDS011;11588;51.178;4.852;2023-04-06T01:39:23;29.30;;;16.13;;
22843;SDS011;11588;51.178;4.852;2023-04-06T01:41:49;28.75;;;15.73;;
22843;SDS011;11588;51.178;4.852;2023-04-06T01:44:16;24.08;;;14.35;;
22843;SDS011;11588;51.178;4.852;2023-04-06T01:46:43;26.52;;;15.32;;
22843;SDS011;11588;51.178;4.852;2023-04-06T01:49:08;22.40;;;13.95;;
22843;SDS011;11588;51.178;4.852;2023-04-06T01:51:34;24.48;;;14.13;;
22843;SDS011;11588;51.178;4.852;2023-04-06T01:54:02;25.77;;;15.32;;
22843;SDS011;11588;51.178;4.852;2023-04-06T01:56:28;26.90;;;14.95;;
22843;SDS011;11588;51.178;4.852;2023-04-06T01:58:53;27.60;;;15.75;;
22843;SDS011;11588;51.178;4.852;2023-04-06T02:01:18;23.83;;;14.65;;
22843;SDS011;11588;51.178;4.852;2023-04-06T02:03:44;24.70;;;14.75;;
22843;SDS011;11588;51.178;4.852;2023-04-06T02:06:09;24.58;;;14.25;;
22843;SDS011;11588;51.178;4.852;2023-04-06T02:08:35;25.65;;;15.13;;
22843;SDS011;11588;51.178;4.852;2023-04-06T02:11:01;26.65;;;15.25;;
22843;SDS011;11588;51.178;4.852;2023-04-06T02:13:26;27.23;;;14.93;;
22843;SDS011;11588;51.178;4.852;2023-04-06T02:15:51;27.45;;;15.68;;
22843;SDS011;11588;51.178;4.852;2023-04-06T02:18:17;23.35;;;14.68;;
22843;SDS011;11588;51.178;4.852;2023-04-06T02:20:43;24.50;;;14.30;;
22843;SDS011;11588;51.178;4.852;2023-04-06T02:23:09;24.33;;;14.60;;
22843;SDS011;11588;51.178;4.852;2023-04-06T02:25:34;24.13;;;14.98;;
22843;SDS011;11588;51.178;4.852;2023-04-06T02:28:00;28.90;;;14.63;;
22843;SDS011;11588;51.178;4.852;2023-04-06T02:30:25;25.00;;;14.77;;
22843;SDS011;11588;51.178;4.852;2023-04-06T02:32:51;28.45;;;15.27;;
22843;SDS011;11588;51.178;4.852;2023-04-06T02:35:16;25.67;;;14.65;;
22843;SDS011;11588;51.178;4.852;2023-04-06T02:37:42;26.88;;;14.05;;
22843;SDS011;11588;51.178;4.852;2023-04-06T02:40:08;28.33;;;15.02;;
22843;SDS011;11588;51.178;4.852;2023-04-06T02:42:34;27.25;;;15.60;;
22843;SDS011;11588;51.178;4.852;2023-04-06T02:45:01;31.10;;;15.02;;
22843;SDS011;11588;51.178;4.852;2023-04-06T02:47:26;25.80;;;15.90;;
22843;SDS011;11588;51.178;4.852;2023-04-06T02:49:51;24.70;;;15.52;;
22843;SDS011;11588;51.178;4.852;2023-04-06T02:52:17;28.45;;;15.40;;
22843;SDS011;11588;51.178;4.852;2023-04-06T02:54:43;23.85;;;15.02;;
22843;SDS011;11588;51.178;4.852;2023-04-06T02:57:08;25.85;;;15.23;;
22843;SDS011;11588;51.178;4.852;2023-04-06T02:59:35;26.23;;;15.50;;
22843;SDS011;11588;51.178;4.852;2023-04-06T03:02:00;23.83;;;15.07;;
22843;SDS011;11588;51.178;4.852;2023-04-06T03:04:26;26.52;;;15.48;;
22843;SDS011;11588;51.178;4.852;2023-04-06T03:06:51;25.55;;;15.60;;
22843;SDS011;11588;51.178;4.852;2023-04-06T03:09:17;27.25;;;15.55;;
22843;SDS011;11588;51.178;4.852;2023-04-06T03:11:42;23.55;;;14.10;;
22843;SDS011;11588;51.178;4.852;2023-04-06T03:14:08;26.05;;;15.07;;
22843;SDS011;11588;51.178;4.852;2023-04-06T03:16:34;25.60;;;15.07;;
22843;SDS011;11588;51.178;4.852;2023-04-06T03:19:01;28.83;;;15.35;;
22843;SDS011;11588;51.178;4.852;2023-04-06T03:21:27;27.35;;;14.98;;
22843;SDS011;11588;51.178;4.852;2023-04-06T03:23:53;29.10;;;14.77;;
22843;SDS011;11588;51.178;4.852;2023-04-06T03:26:18;24.48;;;15.20;;
22843;SDS011;11588;51.178;4.852;2023-04-06T03:28:43;29.48;;;15.98;;
22843;SDS011;11588;51.178;4.852;2023-04-06T03:31:09;29.67;;;15.68;;
22843;SDS011;11588;51.178;4.852;2023-04-06T03:33:36;27.98;;;16.00;;
22843;SDS011;11588;51.178;4.852;2023-04-06T03:36:04;28.02;;;15.32;;
22843;SDS011;11588;51.178;4.852;2023-04-06T03:38:30;27.17;;;15.63;;
22843;SDS011;11588;51.178;4.852;2023-04-06T03:40:55;28.42;;;16.08;;
22843;SDS011;11588;51.178;4.852;2023-04-06T03:43:21;25.05;;;15.25;;
22843;SDS011;11588;51.178;4.852;2023-04-06T03:45:46;26.80;;;15.88;;
22843;SDS011;11588;51.178;4.852;2023-04-06T03:48:11;30.52;;;16.73;;
22843;SDS011;11588;51.178;4.852;2023-04-06T03:50:37;34.05;;;16.60;;
22843;SDS011;11588;51.178;4.852;2023-04-06T03:53:02;26.45;;;15.52;;
22843;SDS011;11588;51.178;4.852;2023-04-06T03:55:28;28.90;;;16.25;;
22843;SDS011;11588;51.178;4.852;2023-04-06T03:57:53;29.95;;;16.08;;
22843;SDS011;11588;51.178;4.852;2023-04-06T04:00:19;23.42;;;14.73;;
22843;SDS011;11588;51.178;4.852;2023-04-06T04:02:44;30.83;;;15.60;;
22843;SDS011;11588;51.178;4.852;2023-04-06T04:05:09;26.63;;;14.65;;
22843;SDS011;11588;51.178;4.852;2023-04-06T04:07:35;27.70;;;14.57;;
22843;SDS011;11588;51.178;4.852;2023-04-06T04:10:00;28.00;;;15.23;;
22843;SDS011;11588;51.178;4.852;2023-04-06T04:12:27;23.08;;;14.65;;
22843;SDS011;11588;51.178;4.852;2023-04-06T04:14:53;28.63;;;15.88;;
22843;SDS011;11588;51.178;4.852;2023-04-06T04:17:18;28.20;;;15.23;;
22843;SDS011;11588;51.178;4.852;2023-04-06T04:19:45;23.65;;;14.48;;
22843;SDS011;11588;51.178;4.852;2023-04-06T04:22:10;26.75;;;14.80;;
22843;SDS011;11588;51.178;4.852;2023-04-06T04:24:36;31.40;;;15.45;;
22843;SDS011;11588;51.178;4.852;2023-04-06T04:27:01;27.67;;;15.25;;
22843;SDS011;11588;51.178;4.852;2023-04-06T04:29:27;23.83;;;14.93;;
22843;SDS011;11588;51.178;4.852;2023-04-06T04:31:54;27.95;;;14.77;;
22843;SDS011;11588;51.178;4.852;2023-04-06T04:34:19;23.02;;;15.32;;
22843;SDS011;11588;51.178;4.852;2023-04-06T04:36:46;26.75;;;14.80;;
22843;SDS011;11588;51.178;4.852;2023-04-06T04:39:11;25.15;;;14.77;;
22843;SDS011;11588;51.178;4.852;2023-04-06T04:41:38;29.75;;;15.88;;
22843;SDS011;11588;51.178;4.852;2023-04-06T04:44:03;25.42;;;16.30;;
22843;SDS011;11588;51.178;4.852;2023-04-06T04:46:30;26.55;;;16.58;;
22843;SDS011;11588;51.178;4.852;2023-04-06T04:48:56;27.27;;;16.25;;
22843;SDS011;11588;51.178;4.852;2023-04-06T04:51:22;25.50;;;15.18;;
22843;SDS011;11588;51.178;4.852;2023-04-06T04:53:49;31.00;;;17.42;;
22843;SDS011;11588;51.178;4.852;2023-04-06T04:56:16;31.25;;;16.90;;
22843;SDS011;11588;51.178;4.852;2023-04-06T04:58:42;31.45;;;16.40;;
22843;SDS011;11588;51.178;4.852;2023-04-06T05:01:08;29.83;;;16.35;;
22843;SDS011;11588;51.178;4.852;2023-04-06T05:03:34;30.58;;;17.13;;
22843;SDS011;11588;51.178;4.852;2023-04-06T05:06:01;32.03;;;17.70;;
22843;SDS011;11588;51.178;4.852;2023-04-06T05:08:28;32.83;;;17.67;;
22843;SDS011;11588;51.178;4.852;2023-04-06T05:10:53;29.25;;;17.35;;
22843;SDS011;11588;51.178;4.852;2023-04-06T05:13:20;30.35;;;17.40;;
22843;SDS011;11588;51.178;4.852;2023-04-06T05:15:45;32.28;;;17.92;;
22843;SDS011;11588;51.178;4.852;2023-04-06T05:18:11;29.98;;;17.42;;
22843;SDS011;11588;51.178;4.852;2023-04-06T05:20:37;29.35;;;18.33;;
22843;SDS011;11588;51.178;4.852;2023-04-06T05:23:03;30.08;;;18.48;;
22843;SDS011;11588;51.178;4.852;2023-04-06T05:25:28;31.45;;;17.92;;
22843;SDS011;11588;51.178;4.852;2023-04-06T05:27:53;36.67;;;18.77;;
22843;SDS011;11588;51.178;4.852;2023-04-06T05:30:19;33.53;;;19.30;;
22843;SDS011;11588;51.178;4.852;2023-04-06T05:32:46;33.83;;;18.60;;
22843;SDS011;11588;51.178;4.852;2023-04-06T05:35:22;33.83;;;18.95;;
22843;SDS011;11588;51.178;4.852;2023-04-06T05:37:47;35.85;;;19.15;;
22843;SDS011;11588;51.178;4.852;2023-04-06T05:40:14;33.35;;;20.38;;
22843;SDS011;11588;51.178;4.852;2023-04-06T05:42:40;35.80;;;19.85;;
22843;SDS011;11588;51.178;4.852;2023-04-06T05:45:09;33.58;;;20.10;;
22843;SDS011;11588;51.178;4.852;2023-04-06T05:47:35;35.40;;;20.92;;
22843;SDS011;11588;51.178;4.852;2023-04-06T05:50:06;35.92;;;19.95;;
22843;SDS011;11588;51.178;4.852;2023-04-06T05:54:58;32.87;;;19.53;;
22843;SDS011;11588;51.178;4.852;2023-04-06T05:57:23;33.53;;;20.55;;
22843;SDS011;11588;51.178;4.852;2023-04-06T05:59:49;34.22;;;18.92;;
22843;SDS011;11588;51.178;4.852;2023-04-06T06:02:15;35.90;;;20.77;;
22843;SDS011;11588;51.178;4.852;2023-04-06T06:04:45;37.03;;;20.63;;
22843;SDS011;11588;51.178;4.852;2023-04-06T06:07:10;31.58;;;20.52;;
22843;SDS011;11588;51.178;4.852;2023-04-06T06:09:36;37.92;;;21.30;;
22843;SDS011;11588;51.178;4.852;2023-04-06T06:12:02;35.78;;;22.05;;
22843;SDS011;11588;51.178;4.852;2023-04-06T06:14:28;38.85;;;22.27;;
22843;SDS011;11588;51.178;4.852;2023-04-06T06:16:53;36.08;;;21.52;;
22843;SDS011;11588;51.178;4.852;2023-04-06T06:19:22;37.65;;;22.95;;
22843;SDS011;11588;51.178;4.852;2023-04-06T06:21:51;38.53;;;22.60;;
22843;SDS011;11588;51.178;4.852;2023-04-06T06:24:18;39.45;;;23.70;;
22843;SDS011;11588;51.178;4.852;2023-04-06T06:26:49;37.67;;;23.52;;
22843;SDS011;11588;51.178;4.852;2023-04-06T06:29:16;39.50;;;23.40;;
22843;SDS011;11588;51.178;4.852;2023-04-06T06:31:42;34.75;;;23.25;;
22843;SDS011;11588;51.178;4.852;2023-04-06T06:34:07;35.13;;;23.10;;
22843;SDS011;11588;51.178;4.852;2023-04-06T06:36:32;37.53;;;23.20;;
22843;SDS011;11588;51.178;4.852;2023-04-06T06:38:58;37.92;;;24.95;;
22843;SDS011;11588;51.178;4.852;2023-04-06T06:41:24;40.90;;;24.63;;
22843;SDS011;11588;51.178;4.852;2023-04-06T06:43:49;42.67;;;25.42;;
22843;SDS011;11588;51.178;4.852;2023-04-06T06:46:14;36.78;;;24.50;;
22843;SDS011;11588;51.178;4.852;2023-04-06T06:48:40;43.17;;;26.23;;
22843;SDS011;11588;51.178;4.852;2023-04-06T06:51:05;43.90;;;26.25;;
22843;SDS011;11588;51.178;4.852;2023-04-06T06:53:31;41.00;;;26.27;;
22843;SDS011;11588;51.178;4.852;2023-04-06T06:55:56;41.42;;;25.85;;
22843;SDS011;11588;51.178;4.852;2023-04-06T06:58:22;41.05;;;26.83;;
22843;SDS011;11588;51.178;4.852;2023-04-06T07:00:49;39.50;;;25.85;;
22843;SDS011;11588;51.178;4.852;2023-04-06T07:03:15;37.67;;;24.80;;
22843;SDS011;11588;51.178;4.852;2023-04-06T07:08:09;38.47;;;25.65;;
22843;SDS011;11588;51.178;4.852;2023-04-06T07:10:34;39.28;;;24.83;;
22843;SDS011;11588;51.178;4.852;2023-04-06T07:13:01;36.40;;;23.55;;
22843;SDS011;11588;51.178;4.852;2023-04-06T07:15:27;39.42;;;24.23;;
22843;SDS011;11588;51.178;4.852;2023-04-06T07:17:53;33.38;;;22.23;;
22843;SDS011;11588;51.178;4.852;2023-04-06T07:20:23;38.03;;;22.05;;
22843;SDS011;11588;51.178;4.852;2023-04-06T07:22:48;35.95;;;22.33;;
22843;SDS011;11588;51.178;4.852;2023-04-06T07:25:14;38.90;;;23.85;;
22843;SDS011;11588;51.178;4.852;2023-04-06T07:27:40;42.70;;;24.42;;
22843;SDS011;11588;51.178;4.852;2023-04-06T07:30:05;40.17;;;25.02;;
22843;SDS011;11588;51.178;4.852;2023-04-06T07:32:31;36.85;;;24.23;;
22843;SDS011;11588;51.178;4.852;2023-04-06T07:34:57;36.83;;;23.05;;
22843;SDS011;11588;51.178;4.852;2023-04-06T07:37:23;41.60;;;24.30;;
22843;SDS011;11588;51.178;4.852;2023-04-06T07:39:48;41.92;;;24.02;;
22843;SDS011;11588;51.178;4.852;2023-04-06T07:42:14;41.67;;;25.08;;
22843;SDS011;11588;51.178;4.852;2023-04-06T07:44:42;37.50;;;22.95;;
22843;SDS011;11588;51.178;4.852;2023-04-06T07:47:12;31.33;;;20.92;;
22843;SDS011;11588;51.178;4.852;2023-04-06T07:49:38;42.30;;;23.98;;
22843;SDS011;11588;51.178;4.852;2023-04-06T07:52:03;34.70;;;22.33;;
22843;SDS011;11588;51.178;4.852;2023-04-06T07:54:29;34.00;;;21.08;;
22843;SDS011;11588;51.178;4.852;2023-04-06T07:56:54;33.35;;;21.80;;
22843;SDS011;11588;51.178;4.852;2023-04-06T07:59:19;35.03;;;20.52;;
22843;SDS011;11588;51.178;4.852;2023-04-06T08:01:45;30.38;;;20.95;;
22843;SDS011;11588;51.178;4.852;2023-04-06T08:04:12;35.50;;;19.52;;
22843;SDS011;11588;51.178;4.852;2023-04-06T08:06:37;31.52;;;19.85;;
22843;SDS011;11588;51.178;4.852;2023-04-06T08:09:03;26.08;;;17.27;;
22843;SDS011;11588;51.178;4.852;2023-04-06T08:11:28;30.02;;;18.55;;
22843;SDS011;11588;51.178;4.852;2023-04-06T08:13:54;33.55;;;18.92;;
22843;SDS011;11588;51.178;4.852;2023-04-06T08:16:25;30.02;;;18.25;;
22843;SDS011;11588;51.178;4.852;2023-04-06T08:18:51;27.35;;;16.95;;
22843;SDS011;11588;51.178;4.852;2023-04-06T08:21:17;30.33;;;18.60;;
22843;SDS011;11588;51.178;4.852;2023-04-06T08:23:45;27.58;;;16.98;;
22843;SDS011;11588;51.178;4.852;2023-04-06T08:26:12;32.38;;;17.98;;
22843;SDS011;11588;51.178;4.852;2023-04-06T08:28:41;26.30;;;17.58;;
22843;SDS011;11588;51.178;4.852;2023-04-06T08:31:07;26.75;;;15.93;;
22843;SDS011;11588;51.178;4.852;2023-04-06T08:33:35;28.38;;;17.50;;
22843;SDS011;11588;51.178;4.852;2023-04-06T08:38:34;26.98;;;16.00;;
22843;SDS011;11588;51.178;4.852;2023-04-06T08:40:59;27.77;;;15.07;;
22843;SDS011;11588;51.178;4.852;2023-04-06T08:43:26;23.05;;;14.52;;
22843;SDS011;11588;51.178;4.852;2023-04-06T08:45:54;24.52;;;15.65;;
22843;SDS011;11588;51.178;4.852;2023-04-06T08:48:19;25.77;;;15.27;;
22843;SDS011;11588;51.178;4.852;2023-04-06T08:50:47;21.83;;;15.10;;
22843;SDS011;11588;51.178;4.852;2023-04-06T08:53:12;24.60;;;15.25;;
22843;SDS011;11588;51.178;4.852;2023-04-06T08:55:39;30.63;;;16.27;;
22843;SDS011;11588;51.178;4.852;2023-04-06T08:58:06;25.92;;;16.00;;
22843;SDS011;11588;51.178;4.852;2023-04-06T09:00:31;20.08;;;13.45;;
22843;SDS011;11588;51.178;4.852;2023-04-06T09:02:57;23.05;;;13.05;;
22843;SDS011;11588;51.178;4.852;2023-04-06T09:05:23;22.05;;;13.68;;
22843;SDS011;11588;51.178;4.852;2023-04-06T09:07:53;18.70;;;11.77;;
22843;SDS011;11588;51.178;4.852;2023-04-06T09:10:19;19.33;;;11.45;;
22843;SDS011;11588;51.178;4.852;2023-04-06T09:12:51;19.95;;;11.52;;
22843;SDS011;11588;51.178;4.852;2023-04-06T09:15:28;19.83;;;11.27;;
22843;SDS011;11588;51.178;4.852;2023-04-06T09:17:56;21.75;;;12.63;;
22843;SDS011;11588;51.178;4.852;2023-04-06T09:20:22;17.60;;;10.60;;
22843;SDS011;11588;51.178;4.852;2023-04-06T09:22:50;21.20;;;12.63;;
22843;SDS011;11588;51.178;4.852;2023-04-06T09:25:19;14.95;;;9.80;;
22843;SDS011;11588;51.178;4.852;2023-04-06T09:27:46;16.35;;;9.85;;
22843;SDS011;11588;51.178;4.852;2023-04-06T09:30:12;20.92;;;9.38;;
22843;SDS011;11588;51.178;4.852;2023-04-06T09:32:44;16.00;;;10.32;;
22843;SDS011;11588;51.178;4.852;2023-04-06T09:35:11;16.30;;;10.18;;
22843;SDS011;11588;51.178;4.852;2023-04-06T09:37:37;16.45;;;9.98;;
22843;SDS011;11588;51.178;4.852;2023-04-06T09:40:03;17.63;;;10.18;;
22843;SDS011;11588;51.178;4.852;2023-04-06T09:42:30;16.08;;;10.02;;
22843;SDS011;11588;51.178;4.852;2023-04-06T09:44:55;17.02;;;11.00;;
22843;SDS011;11588;51.178;4.852;2023-04-06T09:47:21;20.33;;;11.23;;
22843;SDS011;11588;51.178;4.852;2023-04-06T09:49:49;18.25;;;9.82;;
22843;SDS011;11588;51.178;4.852;2023-04-06T09:52:15;16.60;;;10.90;;
22843;SDS011;11588;51.178;4.852;2023-04-06T09:54:41;18.60;;;11.07;;
22843;SDS011;11588;51.178;4.852;2023-04-06T09:57:11;18.23;;;11.05;;
22843;SDS011;11588;51.178;4.852;2023-04-06T09:59:43;17.30;;;11.10;;
22843;SDS011;11588;51.178;4.852;2023-04-06T10:02:14;16.63;;;10.23;;
22843;SDS011;11588;51.178;4.852;2023-04-06T10:04:43;17.30;;;11.02;;
22843;SDS011;11588;51.178;4.852;2023-04-06T10:07:09;19.85;;;11.98;;
22843;SDS011;11588;51.178;4.852;2023-04-06T10:09:37;19.73;;;11.65;;
22843;SDS011;11588;51.178;4.852;2023-04-06T10:12:03;19.13;;;12.95;;
22843;SDS011;11588;51.178;4.852;2023-04-06T10:14:29;21.58;;;12.93;;
22843;SDS011;11588;51.178;4.852;2023-04-06T10:16:57;20.63;;;13.10;;
22843;SDS011;11588;51.178;4.852;2023-04-06T10:19:24;21.05;;;12.48;;
22843;SDS011;11588;51.178;4.852;2023-04-06T10:21:52;21.05;;;13.60;;
22843;SDS011;11588;51.178;4.852;2023-04-06T10:24:19;23.50;;;14.35;;
22843;SDS011;11588;51.178;4.852;2023-04-06T10:29:18;21.45;;;14.75;;
22843;SDS011;11588;51.178;4.852;2023-04-06T10:31:48;27.08;;;15.18;;
22843;SDS011;11588;51.178;4.852;2023-04-06T10:34:13;23.02;;;14.02;;
22843;SDS011;11588;51.178;4.852;2023-04-06T10:36:39;24.60;;;14.52;;
22843;SDS011;11588;51.178;4.852;2023-04-06T10:39:05;22.13;;;14.02;;
22843;SDS011;11588;51.178;4.852;2023-04-06T10:41:36;25.27;;;14.80;;
22843;SDS011;11588;51.178;4.852;2023-04-06T10:44:01;20.27;;;13.95;;
22843;SDS011;11588;51.178;4.852;2023-04-06T10:46:28;22.58;;;13.43;;
22843;SDS011;11588;51.178;4.852;2023-04-06T10:48:53;26.00;;;15.07;;
22843;SDS011;11588;51.178;4.852;2023-04-06T10:51:23;27.27;;;15.10;;
22843;SDS011;11588;51.178;4.852;2023-04-06T10:53:50;23.08;;;14.32;;
22843;SDS011;11588;51.178;4.852;2023-04-06T10:56:18;24.90;;;13.93;;
22843;SDS011;11588;51.178;4.852;2023-04-06T10:58:46;24.65;;;15.10;;
22843;SDS011;11588;51.178;4.852;2023-04-06T11:01:12;21.63;;;14.30;;
22843;SDS011;11588;51.178;4.852;2023-04-06T11:06:10;23.48;;;14.25;;
22843;SDS011;11588;51.178;4.852;2023-04-06T11:08:35;23.90;;;14.38;;
22843;SDS011;11588;51.178;4.852;2023-04-06T11:11:07;19.65;;;13.77;;
22843;SDS011;11588;51.178;4.852;2023-04-06T11:13:37;25.85;;;15.23;;
22843;SDS011;11588;51.178;4.852;2023-04-06T11:16:03;23.73;;;14.93;;
22843;SDS011;11588;51.178;4.852;2023-04-06T11:18:29;22.05;;;15.40;;
22843;SDS011;11588;51.178;4.852;2023-04-06T11:20:54;24.05;;;15.82;;
22843;SDS011;11588;51.178;4.852;2023-04-06T11:23:23;23.63;;;15.45;;
22843;SDS011;11588;51.178;4.852;2023-04-06T11:25:51;25.95;;;15.75;;
22843;SDS011;11588;51.178;4.852;2023-04-06T11:28:19;29.83;;;16.48;;
22843;SDS011;11588;51.178;4.852;2023-04-06T11:30:45;26.35;;;16.55;;
22843;SDS011;11588;51.178;4.852;2023-04-06T11:33:19;24.23;;;15.57;;
22843;SDS011;11588;51.178;4.852;2023-04-06T11:35:44;26.73;;;16.30;;
22843;SDS011;11588;51.178;4.852;2023-04-06T11:38:11;26.17;;;16.70;;
22843;SDS011;11588;51.178;4.852;2023-04-06T11:40:36;30.13;;;16.45;;
22843;SDS011;11588;51.178;4.852;2023-04-06T11:43:02;26.10;;;17.23;;
22843;SDS011;11588;51.178;4.852;2023-04-06T11:45:29;29.77;;;17.80;;
22843;SDS011;11588;51.178;4.852;2023-04-06T11:48:04;26.02;;;17.83;;
22843;SDS011;11588;51.178;4.852;2023-04-06T11:50:31;26.02;;;17.27;;
22843;SDS011;11588;51.178;4.852;2023-04-06T11:52:58;29.00;;;17.83;;
22843;SDS011;11588;51.178;4.852;2023-04-06T11:55:26;27.73;;;16.48;;
22843;SDS011;11588;51.178;4.852;2023-04-06T11:57:52;28.05;;;18.17;;
22843;SDS011;11588;51.178;4.852;2023-04-06T12:00:21;28.38;;;19.52;;
22843;SDS011;11588;51.178;4.852;2023-04-06T12:02:50;31.15;;;19.98;;
22843;SDS011;11588;51.178;4.852;2023-04-06T12:05:17;32.25;;;20.30;;
22843;SDS011;11588;51.178;4.852;2023-04-06T12:07:42;28.65;;;19.13;;
22843;SDS011;11588;51.178;4.852;2023-04-06T12:10:08;29.08;;;18.08;;
22843;SDS011;11588;51.178;4.852;2023-04-06T12:12:33;31.98;;;19.60;;
22843;SDS011;11588;51.178;4.852;2023-04-06T12:14:59;35.75;;;19.80;;
22843;SDS011;11588;51.178;4.852;2023-04-06T12:17:25;33.38;;;20.27;;
22843;SDS011;11588;51.178;4.852;2023-04-06T12:19:51;27.88;;;18.38;;
22843;SDS011;11588;51.178;4.852;2023-04-06T12:22:17;30.63;;;19.55;;
22843;SDS011;11588;51.178;4.852;2023-04-06T12:24:44;27.55;;;18.30;;
22843;SDS011;11588;51.178;4.852;2023-04-06T12:27:09;26.35;;;17.27;;
22843;SDS011;11588;51.178;4.852;2023-04-06T12:29:36;29.05;;;18.05;;
22843;SDS011;11588;51.178;4.852;2023-04-06T12:32:02;25.52;;;18.13;;
22843;SDS011;11588;51.178;4.852;2023-04-06T12:34:28;26.40;;;18.65;;
22843;SDS011;11588;51.178;4.852;2023-04-06T12:36:55;27.05;;;18.58;;
22843;SDS011;11588;51.178;4.852;2023-04-06T12:39:23;28.13;;;18.90;;
22843;SDS011;11588;51.178;4.852;2023-04-06T12:41:50;25.25;;;17.20;;
22843;SDS011;11588;51.178;4.852;2023-04-06T12:44:15;25.92;;;16.90;;
22843;SDS011;11588;51.178;4.852;2023-04-06T12:46:41;27.30;;;19.38;;
22843;SDS011;11588;51.178;4.852;2023-04-06T12:49:08;28.38;;;18.17;;
22843;SDS011;11588;51.178;4.852;2023-04-06T12:51:34;26.15;;;18.40;;
22843;SDS011;11588;51.178;4.852;2023-04-06T12:54:00;26.73;;;17.95;;
22843;SDS011;11588;51.178;4.852;2023-04-06T12:56:26;34.75;;;18.13;;
22843;SDS011;11588;51.178;4.852;2023-04-06T12:58:52;23.20;;;17.23;;
22843;SDS011;11588;51.178;4.852;2023-04-06T13:01:23;23.35;;;17.70;;
22843;SDS011;11588;51.178;4.852;2023-04-06T13:03:50;23.17;;;17.92;;
22843;SDS011;11588;51.178;4.852;2023-04-06T13:06:18;26.23;;;17.23;;
22843;SDS011;11588;51.178;4.852;2023-04-06T13:08:43;26.42;;;17.63;;
22843;SDS011;11588;51.178;4.852;2023-04-06T13:11:09;25.20;;;17.85;;
22843;SDS011;11588;51.178;4.852;2023-04-06T13:13:37;26.35;;;18.45;;
22843;SDS011;11588;51.178;4.852;2023-04-06T13:16:05;26.98;;;17.80;;
22843;SDS011;11588;51.178;4.852;2023-04-06T13:18:31;24.75;;;17.55;;
22843;SDS011;11588;51.178;4.852;2023-04-06T13:20:58;24.00;;;17.25;;
22843;SDS011;11588;51.178;4.852;2023-04-06T13:23:25;21.50;;;16.15;;
22843;SDS011;11588;51.178;4.852;2023-04-06T13:28:24;21.70;;;15.85;;
22843;SDS011;11588;51.178;4.852;2023-04-06T13:30:51;23.33;;;16.70;;
22843;SDS011;11588;51.178;4.852;2023-04-06T13:33:18;25.35;;;17.80;;
22843;SDS011;11588;51.178;4.852;2023-04-06T13:35:44;22.33;;;17.23;;
22843;SDS011;11588;51.178;4.852;2023-04-06T13:38:10;24.25;;;16.83;;
22843;SDS011;11588;51.178;4.852;2023-04-06T13:40:39;22.02;;;16.45;;
22843;SDS011;11588;51.178;4.852;2023-04-06T13:43:06;24.55;;;16.05;;
22843;SDS011;11588;51.178;4.852;2023-04-06T13:45:31;26.30;;;17.33;;
22843;SDS011;11588;51.178;4.852;2023-04-06T13:47:57;24.13;;;18.48;;
22843;SDS011;11588;51.178;4.852;2023-04-06T13:50:25;23.83;;;18.05;;
22843;SDS011;11588;51.178;4.852;2023-04-06T13:52:53;25.67;;;18.85;;
22843;SDS011;11588;51.178;4.852;2023-04-06T13:55:19;25.65;;;18.63;;
22843;SDS011;11588;51.178;4.852;2023-04-06T13:57:44;23.55;;;17.35;;
22843;SDS011;11588;51.178;4.852;2023-04-06T14:00:13;29.92;;;19.58;;
22843;SDS011;11588;51.178;4.852;2023-04-06T14:02:40;28.23;;;20.75;;
22843;SDS011;11588;51.178;4.852;2023-04-06T14:05:07;27.10;;;20.58;;
22843;SDS011;11588;51.178;4.852;2023-04-06T14:07:32;28.48;;;19.98;;
22843;SDS011;11588;51.178;4.852;2023-04-06T14:09:58;28.27;;;19.40;;
22843;SDS011;11588;51.178;4.852;2023-04-06T14:12:28;30.38;;;21.05;;
22843;SDS011;11588;51.178;4.852;2023-04-06T14:14:53;29.00;;;21.50;;
22843;SDS011;11588;51.178;4.852;2023-04-06T14:17:19;30.52;;;22.75;;
22843;SDS011;11588;51.178;4.852;2023-04-06T14:19:44;32.65;;;22.60;;
22843;SDS011;11588;51.178;4.852;2023-04-06T14:22:10;30.98;;;22.92;;
22843;SDS011;11588;51.178;4.852;2023-04-06T14:24:36;31.20;;;23.65;;
22843;SDS011;11588;51.178;4.852;2023-04-06T14:27:02;37.35;;;25.90;;
22843;SDS011;11588;51.178;4.852;2023-04-06T14:29:28;36.95;;;26.08;;
22843;SDS011;11588;51.178;4.852;2023-04-06T14:31:53;34.55;;;25.25;;